Time;durP1;ratioP1;P1;durP2;ratioP2;P2;SDS_P1;SDS_P2;PMS_P1;PMS_P2;Temp;Humidity;BMP_temperature;BMP_pressure;BME280_temperature;BME280_humidity;BME280_pressure;Samples;Min_cycle;Max_cycle;Signal;HPM_P1;HPM_P2
2022/03/16 00:00:13;;;;;;;3.03;2.72;;;21.40;42.90;;;;;;5084229;27;43418;-59
2022/03/16 00:02:45;;;;;;;3.33;3.00;;;21.40;43.00;;;;;;5086067;28;43475;-60
2022/03/16 00:05:14;;;;;;;3.13;2.83;;;21.30;42.90;;;;;;5083317;27;44065;-59
2022/03/16 00:07:42;;;;;;;3.28;2.63;;;21.30;42.90;;;;;;5086419;27;43940;-60
2022/03/16 00:10:11;;;;;;;2.65;2.45;;;21.30;42.90;;;;;;5087438;27;43390;-61
2022/03/16 00:12:39;;;;;;;3.13;2.83;;;21.30;42.90;;;;;;5083767;27;43523;-60
2022/03/16 00:15:07;;;;;;;3.65;2.80;;;21.30;42.80;;;;;;5083643;27;44294;-60
2022/03/16 00:17:35;;;;;;;3.83;2.90;;;21.30;42.90;;;;;;5082778;28;43473;-60
2022/03/16 00:20:03;;;;;;;3.17;2.88;;;21.30;42.80;;;;;;5083352;27;43463;-60
2022/03/16 00:22:31;;;;;;;2.90;2.70;;;21.30;42.90;;;;;;5087298;27;43498;-60
2022/03/16 00:24:59;;;;;;;2.88;2.67;;;21.30;42.80;;;;;;5085801;27;44951;-60
2022/03/16 00:27:26;;;;;;;3.10;2.72;;;21.30;42.80;;;;;;5084067;28;43418;-59
2022/03/16 00:29:53;;;;;;;2.90;2.60;;;21.20;42.90;;;;;;5085856;28;43446;-60
2022/03/16 00:32:21;;;;;;;2.55;2.35;;;21.20;42.90;;;;;;5083581;28;43584;-60
2022/03/16 00:34:48;;;;;;;3.25;2.55;;;21.20;43.00;;;;;;5079691;28;44190;-59
2022/03/16 00:37:16;;;;;;;3.00;2.70;;;21.20;43.00;;;;;;5082965;28;44006;-60
2022/03/16 00:39:43;;;;;;;3.00;2.80;;;21.10;42.90;;;;;;5079672;28;43461;-60
2022/03/16 00:42:11;;;;;;;2.72;2.53;;;21.10;42.90;;;;;;5078959;28;43579;-60
2022/03/16 00:44:39;;;;;;;3.70;2.88;;;21.10;43.00;;;;;;5086182;27;44078;-59
2022/03/16 00:47:07;;;;;;;2.95;2.75;;;21.10;42.90;;;;;;5083241;27;43515;-60
2022/03/16 00:49:34;;;;;;;2.58;2.38;;;21.10;42.90;;;;;;5081910;28;43526;-60
2022/03/16 00:52:04;;;;;;;2.63;2.30;;;21.10;42.80;;;;;;5085480;28;43512;-60
2022/03/16 00:54:31;;;;;;;2.90;2.60;;;21.10;42.90;;;;;;5084875;28;44061;-60
2022/03/16 00:57:01;;;;;;;2.63;2.40;;;21.10;42.80;;;;;;5082802;27;43439;-60
2022/03/16 00:59:29;;;;;;;2.70;2.50;;;21.10;42.90;;;;;;5084998;28;43632;-60
2022/03/16 01:01:57;;;;;;;3.00;2.67;;;21.10;42.90;;;;;;5086370;28;43718;-59
2022/03/16 01:04:25;;;;;;;2.50;2.33;;;21.10;42.90;;;;;;5083970;28;44329;-60
2022/03/16 01:06:54;;;;;;;2.83;2.63;;;21.00;42.90;;;;;;5082528;28;43469;-60
2022/03/16 01:09:21;;;;;;;2.95;2.70;;;21.00;42.80;;;;;;5083847;27;43399;-59
2022/03/16 01:11:49;;;;;;;3.10;2.80;;;21.00;42.80;;;;;;5085105;28;43739;-60
2022/03/16 01:14:17;;;;;;;2.80;2.60;;;21.00;43.50;;;;;;5104776;27;44686;-60
2022/03/16 01:16:45;;;;;;;2.67;2.47;;;21.00;42.80;;;;;;5082744;28;43922;-59
2022/03/16 01:19:14;;;;;;;3.15;2.50;;;20.90;42.80;;;;;;5084180;27;43409;-60
2022/03/16 01:21:44;;;;;;;2.70;2.50;;;20.90;42.80;;;;;;5079189;28;43494;-59
2022/03/16 01:24:11;;;;;;;3.15;2.80;;;20.90;42.80;;;;;;5081900;28;43796;-59
2022/03/16 01:26:39;;;;;;;3.00;2.70;;;20.90;42.80;;;;;;5084642;28;43530;-60
2022/03/16 01:29:06;;;;;;;2.70;2.45;;;20.90;42.90;;;;;;5085984;27;43441;-60
2022/03/16 01:31:38;;;;;;;2.70;2.50;;;20.90;42.80;;;;;;5084476;28;43585;-59
2022/03/16 01:34:05;;;;;;;;;;;20.90;42.80;;;;;;5085587;27;44037;-60
2022/03/16 01:36:33;;;;;;;3.38;2.72;;;20.90;42.80;;;;;;5081943;28;43521;-60
2022/03/16 01:39:00;;;;;;;2.85;2.53;;;20.80;42.80;;;;;;5085811;27;43422;-60
2022/03/16 01:41:28;;;;;;;2.63;2.42;;;20.80;42.90;;;;;;5084714;28;43640;-61
2022/03/16 01:43:57;;;;;;;2.70;2.50;;;20.80;42.90;;;;;;5081730;28;44868;-60
2022/03/16 01:46:28;;;;;;;;;;;20.80;42.90;;;;;;5078577;28;43393;-60
2022/03/16 01:48:57;;;;;;;3.50;2.55;;;20.80;42.90;;;;;;5081499;28;43470;-60
2022/03/16 01:51:25;;;;;;;2.50;2.30;;;20.80;42.90;;;;;;5085686;27;43450;-60
2022/03/16 01:53:52;;;;;;;3.00;2.60;;;20.80;42.90;;;;;;5059542;28;44301;-60
2022/03/16 01:56:20;;;;;;;3.03;2.60;;;20.80;42.90;;;;;;5081238;28;43379;-60
2022/03/16 01:58:47;;;;;;;2.80;2.60;;;20.70;42.80;;;;;;5067532;28;43507;-60
2022/03/16 02:01:15;;;;;;;2.60;2.40;;;20.70;42.80;;;;;;5079492;28;43553;-60
2022/03/16 02:03:43;;;;;;;3.35;3.05;;;20.70;42.80;;;;;;5081539;27;45057;-61
2022/03/16 02:06:12;;;;;;;2.80;2.60;;;20.70;42.80;;;;;;5076035;28;43512;-60
2022/03/16 02:08:42;;;;;;;2.90;2.70;;;20.70;42.80;;;;;;5084970;28;43476;-59
2022/03/16 02:11:10;;;;;;;3.00;2.80;;;20.70;42.80;;;;;;5085360;27;43502;-60
2022/03/16 02:13:37;;;;;;;2.72;2.53;;;20.70;42.80;;;;;;5084777;28;44155;-60
2022/03/16 02:16:05;;;;;;;3.30;3.00;;;20.70;42.90;;;;;;5084785;27;43532;-59
2022/03/16 02:18:33;;;;;;;2.78;2.58;;;20.60;42.80;;;;;;5081879;28;43403;-60
2022/03/16 02:21:02;;;;;;;2.83;2.63;;;20.70;42.80;;;;;;5081049;27;43629;-60
2022/03/16 02:23:30;;;;;;;3.00;2.80;;;20.60;42.80;;;;;;5082229;28;43836;-60
2022/03/16 02:25:58;;;;;;;2.75;2.55;;;20.60;42.80;;;;;;5084316;27;43426;-60
2022/03/16 02:28:26;;;;;;;2.92;2.60;;;20.60;42.80;;;;;;5083603;28;43485;-60
2022/03/16 02:30:53;;;;;;;3.25;2.75;;;20.60;42.80;;;;;;5084438;27;43482;-60
2022/03/16 02:33:21;;;;;;;3.00;2.80;;;20.60;42.90;;;;;;5082084;28;43830;-60
2022/03/16 02:35:48;;;;;;;2.72;2.53;;;20.50;42.90;;;;;;5081163;28;43996;-60
2022/03/16 02:38:16;;;;;;;3.15;2.85;;;20.50;42.90;;;;;;5085017;27;44032;-60
2022/03/16 02:40:44;;;;;;;2.90;2.70;;;20.50;42.90;;;;;;5084402;28;43512;-60
2022/03/16 02:43:11;;;;;;;3.45;3.15;;;20.50;42.90;;;;;;5081802;28;44965;-60
2022/03/16 02:45:39;;;;;;;2.88;2.67;;;20.50;42.90;;;;;;5079769;27;43449;-60
2022/03/16 02:48:06;;;;;;;3.30;3.03;;;20.50;42.90;;;;;;5083644;28;43587;-61
2022/03/16 02:50:34;;;;;;;2.97;2.70;;;20.50;42.90;;;;;;5084868;27;43646;-60
2022/03/16 02:53:01;;;;;;;2.90;2.70;;;20.50;42.90;;;;;;5084453;28;44711;-60
2022/03/16 02:55:49;;;;;;;2.72;2.53;;;20.50;42.90;;;;;;5080590;27;43458;-60
2022/03/16 02:58:17;;;;;;;3.60;2.83;;;20.50;42.90;;;;;;5081011;27;44047;-60
2022/03/16 03:00:45;;;;;;;2.75;2.53;;;20.50;42.90;;;;;;5084518;27;43604;-60
2022/03/16 03:03:13;;;;;;;3.20;2.90;;;20.40;42.80;;;;;;5081758;28;44062;-59
2022/03/16 03:05:40;;;;;;;3.22;2.90;;;20.50;42.90;;;;;;5080264;27;43399;-60
2022/03/16 03:08:08;;;;;;;2.72;2.53;;;20.40;42.80;;;;;;5084477;27;43518;-60
2022/03/16 03:10:36;;;;;;;3.22;2.70;;;20.40;42.80;;;;;;5079831;28;43614;-60
2022/03/16 03:13:03;;;;;;;2.90;2.70;;;20.40;42.90;;;;;;5083434;28;43931;-60
2022/03/16 03:15:31;;;;;;;3.05;2.75;;;20.40;42.80;;;;;;5079840;27;43927;-60
2022/03/16 03:17:59;;;;;;;2.90;2.70;;;20.40;42.80;;;;;;5083948;27;43509;-59
2022/03/16 03:20:26;;;;;;;3.15;2.85;;;20.30;42.80;;;;;;5080596;28;43427;-60
2022/03/16 03:22:54;;;;;;;2.80;2.60;;;20.30;42.80;;;;;;5084081;27;44971;-60
2022/03/16 03:25:21;;;;;;;3.10;2.90;;;20.30;42.80;;;;;;5083286;28;45394;-60
2022/03/16 03:27:49;;;;;;;3.50;3.15;;;20.30;42.80;;;;;;5082998;28;43469;-59
2022/03/16 03:30:16;;;;;;;2.72;2.53;;;20.30;42.80;;;;;;5080650;27;43668;-60
2022/03/16 03:32:43;;;;;;;3.00;2.70;;;20.30;42.80;;;;;;5082949;28;44048;-60
2022/03/16 03:35:11;;;;;;;3.30;3.00;;;20.30;42.80;;;;;;5083176;27;43477;-59
2022/03/16 03:37:38;;;;;;;2.80;2.60;;;20.30;42.80;;;;;;5080340;28;43416;-60
2022/03/16 03:40:06;;;;;;;2.83;2.63;;;20.30;42.80;;;;;;5080360;27;43481;-60
2022/03/16 03:42:34;;;;;;;2.83;2.63;;;20.20;42.80;;;;;;5079010;28;44022;-61
2022/03/16 03:45:02;;;;;;;2.95;2.75;;;20.20;42.90;;;;;;5083270;27;44089;-60
2022/03/16 03:47:30;;;;;;;3.20;2.90;;;20.20;42.80;;;;;;5084031;27;43475;-60
2022/03/16 03:49:57;;;;;;;3.50;3.20;;;20.20;42.80;;;;;;5080015;28;43632;-60
2022/03/16 03:52:25;;;;;;;2.80;2.60;;;20.20;42.80;;;;;;5083552;27;43747;-59
2022/03/16 03:54:52;;;;;;;3.22;2.95;;;20.10;42.80;;;;;;5079623;27;43984;-60
2022/03/16 03:57:20;;;;;;;3.22;2.92;;;20.10;42.80;;;;;;5083768;27;43583;-60
2022/03/16 03:59:48;;;;;;;3.05;2.85;;;20.10;42.70;;;;;;5076928;28;43617;-60
2022/03/16 04:02:16;;;;;;;2.78;2.58;;;20.10;42.80;;;;;;5080020;28;44935;-61
2022/03/16 04:04:44;;;;;;;3.22;3.00;;;20.10;42.80;;;;;;5083082;28;43430;-60
2022/03/16 04:07:11;;;;;;;2.90;2.70;;;20.10;42.80;;;;;;5081450;27;43459;-60
2022/03/16 04:09:39;;;;;;;3.25;2.95;;;20.10;42.80;;;;;;5076812;28;43544;-60
2022/03/16 04:12:07;;;;;;;2.92;2.72;;;20.10;42.80;;;;;;5083486;27;44037;-60
2022/03/16 04:14:34;;;;;;;2.90;2.70;;;20.10;42.80;;;;;;5082901;27;43545;-60
2022/03/16 04:17:02;;;;;;;3.03;2.83;;;20.10;42.80;;;;;;5082701;27;43516;-61
2022/03/16 04:19:29;;;;;;;3.10;2.80;;;20.00;42.70;;;;;;5083552;27;43581;-60
2022/03/16 04:21:57;;;;;;;2.90;2.60;;;20.00;42.80;;;;;;5079810;27;45003;-60
2022/03/16 04:24:24;;;;;;;2.90;2.60;;;20.00;42.80;;;;;;5083206;28;43446;-60
2022/03/16 04:26:53;;;;;;;2.63;2.42;;;20.00;42.80;;;;;;5081786;28;43553;-60
2022/03/16 04:29:20;;;;;;;3.00;2.80;;;20.00;42.80;;;;;;5080654;28;43477;-60
2022/03/16 04:31:48;;;;;;;2.72;2.42;;;20.00;42.80;;;;;;5079575;27;44063;-60
2022/03/16 04:34:16;;;;;;;2.72;2.53;;;20.00;43.40;;;;;;5077245;28;43477;-60
2022/03/16 04:36:46;;;;;;;3.05;2.75;;;20.00;42.90;;;;;;5079602;27;43457;-60
2022/03/16 04:39:13;;;;;;;2.60;2.40;;;20.00;42.80;;;;;;5079718;27;43607;-61
2022/03/16 04:41:41;;;;;;;2.92;2.72;;;19.90;42.80;;;;;;5081594;28;43716;-60
2022/03/16 04:44:09;;;;;;;2.70;2.50;;;19.90;42.80;;;;;;5083181;27;44281;-60
2022/03/16 04:46:37;;;;;;;3.05;2.83;;;19.90;42.80;;;;;;5085876;27;43458;-60
2022/03/16 04:49:04;;;;;;;3.05;2.67;;;19.90;42.80;;;;;;5111156;27;43596;-60
2022/03/16 04:51:32;;;;;;;2.85;2.65;;;19.90;42.80;;;;;;5083661;27;43788;-60
2022/03/16 04:53:59;;;;;;;2.70;2.50;;;19.90;42.80;;;;;;5086225;27;44004;-60
2022/03/16 04:56:27;;;;;;;2.90;2.70;;;19.90;42.80;;;;;;5085712;28;43537;-60
2022/03/16 04:58:54;;;;;;;3.53;3.22;;;19.90;42.80;;;;;;5082858;28;43464;-60
2022/03/16 05:01:22;;;;;;;2.83;2.63;;;19.80;42.70;;;;;;5086224;27;44697;-60
2022/03/16 05:03:49;;;;;;;2.95;2.75;;;19.80;42.80;;;;;;5081303;28;43988;-60
2022/03/16 05:06:17;;;;;;;3.08;2.65;;;19.80;42.80;;;;;;5085237;27;43503;-60
2022/03/16 05:08:47;;;;;;;2.78;2.58;;;19.80;42.80;;;;;;5108551;27;43473;-60
2022/03/16 05:11:15;;;;;;;3.22;2.80;;;19.80;42.80;;;;;;5086057;27;44077;-60
2022/03/16 05:13:44;;;;;;;2.67;2.47;;;19.80;42.80;;;;;;5085942;28;43611;-60
2022/03/16 05:16:11;;;;;;;3.03;2.83;;;19.80;42.80;;;;;;5082452;27;43586;-60
2022/03/16 05:18:40;;;;;;;2.95;2.72;;;19.80;42.90;;;;;;5086190;28;43927;-60
2022/03/16 05:21:08;;;;;;;2.92;2.72;;;19.80;42.80;;;;;;5086081;27;43748;-60
2022/03/16 05:23:36;;;;;;;2.80;2.60;;;19.70;42.80;;;;;;5085733;27;43466;-60
2022/03/16 05:26:04;;;;;;;3.00;2.80;;;19.70;42.90;;;;;;5080342;28;43502;-59
2022/03/16 05:28:31;;;;;;;3.13;2.83;;;19.70;42.90;;;;;;5084518;28;43573;-59
2022/03/16 05:30:59;;;;;;;2.60;2.40;;;19.70;42.90;;;;;;5085498;27;43790;-60
2022/03/16 05:33:27;;;;;;;3.05;2.75;;;19.70;42.90;;;;;;5085856;27;43454;-60
2022/03/16 05:35:54;;;;;;;2.88;2.67;;;19.70;42.90;;;;;;5085584;27;43495;-59
2022/03/16 05:38:22;;;;;;;3.33;2.70;;;19.70;42.90;;;;;;5085904;28;43513;-59
2022/03/16 05:40:49;;;;;;;3.50;3.00;;;19.70;42.90;;;;;;5085462;27;43966;-60
2022/03/16 05:43:17;;;;;;;3.28;3.00;;;19.60;42.80;;;;;;5084879;27;43553;-60
2022/03/16 05:45:45;;;;;;;3.05;2.38;;;19.60;42.80;;;;;;5084856;28;43418;-60
2022/03/16 05:48:13;;;;;;;3.30;2.95;;;19.60;42.80;;;;;;5085881;27;43445;-60
2022/03/16 05:50:44;;;;;;;2.97;2.70;;;19.60;42.80;;;;;;5082227;28;43863;-59
2022/03/16 05:53:12;;;;;;;2.80;2.60;;;19.60;42.80;;;;;;5085031;27;43437;-60
2022/03/16 05:55:40;;;;;;;3.25;2.75;;;19.60;42.90;;;;;;5082330;27;43461;-60
2022/03/16 05:58:08;;;;;;;2.72;2.53;;;19.60;42.90;;;;;;5100956;27;43434;-59
2022/03/16 06:00:37;;;;;;;2.80;2.60;;;19.60;42.80;;;;;;5081924;28;44050;-60
2022/03/16 06:03:05;;;;;;;2.80;2.60;;;19.60;42.90;;;;;;5080302;27;43456;-60
2022/03/16 06:05:33;;;;;;;2.70;2.50;;;19.60;42.90;;;;;;5083396;28;43552;-60
2022/03/16 06:08:01;;;;;;;2.92;2.72;;;19.60;42.90;;;;;;5085504;27;43469;-60
2022/03/16 06:10:28;;;;;;;2.90;2.58;;;19.60;42.90;;;;;;5085224;27;44124;-59
2022/03/16 06:13:01;;;;;;;3.17;2.88;;;19.50;42.80;;;;;;5085354;27;43513;-60
2022/03/16 06:15:43;;;;;;;3.05;2.80;;;19.50;42.80;;;;;;5085019;28;43506;-60
2022/03/16 06:18:12;;;;;;;2.88;2.67;;;19.50;42.80;;;;;;5081830;27;43454;-60
2022/03/16 06:20:40;;;;;;;2.88;2.67;;;19.50;42.90;;;;;;5081567;28;44066;-59
2022/03/16 06:23:08;;;;;;;2.58;2.38;;;19.50;42.80;;;;;;5083250;27;43554;-60
2022/03/16 06:25:40;;;;;;;2.80;2.60;;;19.50;42.90;;;;;;5084342;28;43482;-60
2022/03/16 06:28:08;;;;;;;2.90;2.60;;;19.50;42.90;;;;;;5081858;28;43433;-61
2022/03/16 06:30:35;;;;;;;2.80;2.60;;;19.50;42.90;;;;;;5085089;27;43784;-59
2022/03/16 06:33:04;;;;;;;2.85;2.65;;;19.50;42.90;;;;;;5080062;28;43450;-60
2022/03/16 06:35:32;;;;;;;3.38;2.78;;;19.50;42.90;;;;;;5084752;28;43500;-60
2022/03/16 06:38:00;;;;;;;2.80;2.53;;;19.50;42.90;;;;;;5081437;27;43443;-60
2022/03/16 06:40:27;;;;;;;2.80;2.60;;;19.50;42.90;;;;;;5084835;28;44059;-59
2022/03/16 06:42:58;;;;;;;3.03;2.72;;;19.40;42.80;;;;;;5081144;28;43972;-60
2022/03/16 06:45:27;;;;;;;2.70;2.50;;;19.40;42.90;;;;;;5076213;28;43397;-60
2022/03/16 06:47:57;;;;;;;2.90;2.70;;;19.50;42.90;;;;;;5084700;27;43590;-60
2022/03/16 06:50:25;;;;;;;2.42;2.25;;;19.50;42.90;;;;;;5084826;27;44044;-60
2022/03/16 06:52:57;;;;;;;2.90;2.70;;;19.40;42.90;;;;;;5081144;28;43528;-60
2022/03/16 06:55:26;;;;;;;2.80;2.60;;;19.40;42.90;;;;;;5084657;27;44058;-60
2022/03/16 06:57:55;;;;;;;2.90;2.70;;;19.40;42.90;;;;;;5084660;28;43521;-60
2022/03/16 07:00:22;;;;;;;2.92;2.72;;;19.40;43.00;;;;;;5084385;28;44054;-60
2022/03/16 07:02:54;;;;;;;2.72;2.53;;;19.40;43.00;;;;;;5084408;27;43934;-60
2022/03/16 07:05:26;;;;;;;2.92;2.72;;;19.40;43.00;;;;;;5084088;28;43488;-60
2022/03/16 07:07:58;;;;;;;3.03;2.75;;;19.30;42.90;;;;;;5081149;27;43656;-61
2022/03/16 07:10:27;;;;;;;3.30;3.00;;;19.30;43.00;;;;;;5084323;28;44996;-60
2022/03/16 07:12:55;;;;;;;2.80;2.60;;;19.30;43.00;;;;;;5084145;28;43967;-60
2022/03/16 07:15:23;;;;;;;3.10;2.90;;;19.30;43.00;;;;;;5083774;27;43516;-60
2022/03/16 07:17:51;;;;;;;3.17;2.92;;;19.30;43.00;;;;;;5084039;28;43640;-61
2022/03/16 07:20:19;;;;;;;3.00;2.80;;;19.30;43.00;;;;;;5083933;27;45084;-61
2022/03/16 07:23:04;;;;;;;3.45;2.80;;;19.30;43.00;;;;;;5079247;28;43517;-61
2022/03/16 07:25:38;;;;;;;2.83;2.63;;;19.30;43.00;;;;;;5082657;28;43447;-61
2022/03/16 07:28:07;;;;;;;3.25;2.90;;;19.30;43.00;;;;;;5084153;28;43545;-61
2022/03/16 07:30:36;;;;;;;3.17;2.80;;;19.30;43.00;;;;;;5080344;27;44971;-61
2022/03/16 07:33:05;;;;;;;3.20;2.47;;;19.30;43.00;;;;;;5080442;27;43557;-61
2022/03/16 07:35:35;;;;;;;2.90;2.70;;;19.20;43.00;;;;;;5083546;28;43497;-61
2022/03/16 07:38:03;;;;;;;2.88;2.67;;;19.30;43.20;;;;;;5082757;28;43550;-61
2022/03/16 07:40:33;;;;;;;2.80;2.60;;;19.30;43.30;;;;;;5079176;28;44080;-61
2022/03/16 07:43:04;;;;;;;2.83;2.63;;;19.20;43.30;;;;;;5079019;27;43502;-61
2022/03/16 07:45:32;;;;;;;2.97;2.78;;;19.20;43.30;;;;;;5083545;27;43436;-60
2022/03/16 07:48:00;;;;;;;3.17;2.92;;;19.20;43.30;;;;;;5083125;28;43506;-61
2022/03/16 07:50:28;;;;;;;2.90;2.70;;;19.20;43.30;;;;;;5083625;28;44075;-61
2022/03/16 07:52:56;;;;;;;3.45;2.80;;;19.30;43.40;;;;;;5078988;28;43999;-61
2022/03/16 07:55:27;;;;;;;2.90;2.70;;;19.30;43.50;;;;;;5082472;28;43629;-61
2022/03/16 07:57:55;;;;;;;2.60;2.40;;;19.30;43.50;;;;;;5083629;27;43541;-61
2022/03/16 08:00:24;;;;;;;3.00;2.80;;;19.20;43.40;;;;;;5079844;27;44055;-62
2022/03/16 08:02:55;;;;;;;2.75;2.55;;;19.20;43.50;;;;;;5076669;28;43438;-61
2022/03/16 08:05:24;;;;;;;2.75;2.55;;;19.20;43.50;;;;;;5081924;28;43485;-61
2022/03/16 08:07:51;;;;;;;2.70;2.50;;;19.20;43.60;;;;;;5083708;27;43504;-62
2022/03/16 08:10:19;;;;;;;2.60;2.40;;;19.30;43.60;;;;;;5080059;27;44893;-60
2022/03/16 08:12:47;;;;;;;2.70;2.50;;;19.20;43.60;;;;;;5083428;27;44070;-61
2022/03/16 08:15:14;;;;;;;2.58;2.38;;;19.30;43.60;;;;;;5082537;28;43434;-61
2022/03/16 08:17:42;;;;;;;3.55;2.70;;;19.30;43.60;;;;;;5079962;27;43566;-61
2022/03/16 08:20:10;;;;;;;2.88;2.67;;;19.30;43.60;;;;;;5081725;27;44956;-61
2022/03/16 08:22:38;;;;;;;3.03;2.83;;;19.30;43.60;;;;;;5081837;28;43449;-61
2022/03/16 08:25:10;;;;;;;2.75;2.55;;;19.30;43.60;;;;;;5083684;27;43535;-60
2022/03/16 08:27:39;;;;;;;2.78;2.58;;;19.30;43.60;;;;;;5087077;28;43573;-61
2022/03/16 08:30:09;;;;;;;3.42;2.72;;;19.30;43.60;;;;;;5083541;27;43777;-62
2022/03/16 08:32:37;;;;;;;2.83;2.63;;;19.30;43.60;;;;;;5083103;28;44096;-61
2022/03/16 08:35:08;;;;;;;2.67;2.47;;;19.30;43.60;;;;;;5081901;28;43465;-61
2022/03/16 08:37:36;;;;;;;2.95;2.72;;;19.40;43.70;;;;;;5081315;28;43458;-61
2022/03/16 08:40:05;;;;;;;3.33;3.03;;;19.40;43.60;;;;;;5083090;27;44001;-60
2022/03/16 08:42:33;;;;;;;3.10;2.85;;;19.40;43.70;;;;;;5086471;27;43474;-61
2022/03/16 08:45:01;;;;;;;4.30;3.15;;;19.40;43.60;;;;;;5080762;28;43452;-61
2022/03/16 08:47:29;;;;;;;3.53;2.90;;;19.40;43.60;;;;;;5076100;27;43443;-61
2022/03/16 08:49:56;;;;;;;5.65;3.60;;;19.50;43.80;;;;;;5086393;27;44025;-62
2022/03/16 08:52:24;;;;;;;4.40;3.25;;;19.60;43.90;;;;;;5082129;27;43587;-62
2022/03/16 08:54:52;;;;;;;4.45;3.10;;;19.70;43.80;;;;;;5082778;27;43453;-62
2022/03/16 08:57:21;;;;;;;4.97;2.90;;;19.80;43.90;;;;;;5084277;27;43560;-61
2022/03/16 08:59:50;;;;;;;5.13;3.30;;;19.90;43.90;;;;;;5081891;27;44799;-61
2022/03/16 09:02:17;;;;;;;3.63;3.30;;;20.00;44.00;;;;;;5083767;27;43522;-60
2022/03/16 09:04:45;;;;;;;3.45;3.10;;;20.20;43.90;;;;;;5084265;27;43458;-61
2022/03/16 09:07:13;;;;;;;3.72;3.00;;;20.40;43.80;;;;;;5083942;27;44118;-62
2022/03/16 09:09:41;;;;;;;5.03;2.80;;;20.50;43.80;;;;;;5084708;27;43745;-61
2022/03/16 09:12:09;;;;;;;3.65;3.17;;;20.60;43.60;;;;;;5081187;27;44001;-60
2022/03/16 09:14:39;;;;;;;5.47;3.40;;;20.70;43.50;;;;;;5099669;27;43407;-61
2022/03/16 09:17:10;;;;;;;4.78;3.60;;;20.90;43.40;;;;;;5086095;27;43592;-62
2022/03/16 09:19:38;;;;;;;4.35;3.63;;;21.00;43.20;;;;;;5084660;27;44998;-61
2022/03/16 09:22:06;;;;;;;6.30;3.20;;;21.10;43.00;;;;;;5084389;27;43481;-61
2022/03/16 09:24:34;;;;;;;5.45;3.60;;;21.20;43.60;;;;;;5084135;27;43429;-61
2022/03/16 09:27:02;;;;;;;3.78;3.35;;;21.30;42.70;;;;;;5084146;27;43547;-62
2022/03/16 09:29:29;;;;;;;5.65;3.30;;;21.40;42.60;;;;;;5048966;27;44916;-61
2022/03/16 09:32:07;;;;;;;3.85;3.30;;;21.50;42.50;;;;;;5083421;27;44017;-62
2022/03/16 09:34:36;;;;;;;7.03;3.35;;;21.70;42.30;;;;;;5083907;27;43514;-62
2022/03/16 09:37:05;;;;;;;6.60;3.15;;;21.70;42.30;;;;;;5083771;27;43469;-62
2022/03/16 09:39:32;;;;;;;3.67;3.30;;;21.90;42.30;;;;;;5083623;27;43779;-61
2022/03/16 09:42:00;;;;;;;3.58;3.08;;;22.10;42.10;;;;;;5084912;27;43527;-62
2022/03/16 09:44:30;;;;;;;4.13;3.40;;;22.20;41.80;;;;;;5083983;27;43482;-62
2022/03/16 09:46:59;;;;;;;;;;;22.30;41.70;;;;;;5083227;27;43441;-62
2022/03/16 09:49:27;;;;;;;3.88;3.47;;;22.40;41.70;;;;;;5076719;27;44338;-61
2022/03/16 09:51:56;;;;;;;4.32;3.25;;;22.50;41.70;;;;;;5084089;27;43514;-62
2022/03/16 09:54:24;;;;;;;5.95;4.05;;;22.50;41.60;;;;;;5083429;27;43518;-62
2022/03/16 09:56:53;;;;;;;7.63;3.97;;;22.60;41.40;;;;;;5082145;27;43414;-62
2022/03/16 09:59:21;;;;;;;3.55;3.25;;;22.70;41.40;;;;;;5080746;27;44923;-62
2022/03/16 10:02:04;;;;;;;3.55;3.17;;;22.70;41.40;;;;;;5080665;27;43538;-62
2022/03/16 10:04:36;;;;;;;3.85;3.42;;;22.70;41.30;;;;;;5081642;27;43487;-62
2022/03/16 10:07:08;;;;;;;3.40;3.10;;;22.70;41.30;;;;;;5076378;27;43839;-62
2022/03/16 10:15:18;;;;;;;4.60;3.90;;;22.70;41.20;;;;;;5081837;27;43464;-62
2022/03/16 10:17:48;;;;;;;4.75;4.30;;;22.80;41.30;;;;;;5091829;27;43561;-62
2022/03/16 10:20:21;;;;;;;5.00;4.50;;;22.80;41.10;;;;;;5083596;27;43902;-62
2022/03/16 10:22:59;;;;;;;4.47;3.78;;;22.80;41.20;;;;;;5080010;27;43707;-62
2022/03/16 10:25:29;;;;;;;4.38;3.97;;;22.80;41.30;;;;;;5083874;27;43540;-62
2022/03/16 10:28:10;;;;;;;6.00;4.43;;;22.80;41.20;;;;;;5067893;27;43578;-62
2022/03/16 10:30:58;;;;;;;;;;;22.80;41.20;;;;;;5083050;27;45016;-62
2022/03/16 10:33:43;;;;;;;4.88;3.88;;;22.80;41.40;;;;;;5080732;27;43570;-61
2022/03/16 10:36:13;;;;;;;7.20;4.55;;;22.80;41.40;;;;;;5082611;27;43439;-61
2022/03/16 10:38:49;;;;;;;4.32;3.92;;;22.80;41.40;;;;;;5083170;27;43547;-62
2022/03/16 10:47:19;;;;;;;3.95;3.55;;;22.70;41.40;;;;;;5082891;27;43485;-62
2022/03/16 10:50:00;;;;;;;3.25;2.95;;;22.70;41.40;;;;;;5082801;27;43572;-62
2022/03/16 10:52:31;;;;;;;4.93;3.00;;;22.80;41.50;;;;;;5082381;27;44103;-62
2022/03/16 10:55:02;;;;;;;4.40;2.80;;;22.80;41.50;;;;;;5082323;27;44002;-62
2022/03/16 10:57:30;;;;;;;;;;;22.80;41.50;;;;;;5079781;27;43481;-62
2022/03/16 10:59:59;;;;;;;3.40;3.10;;;22.80;41.50;;;;;;5070413;27;43487;-62
2022/03/16 11:02:33;;;;;;;3.47;2.60;;;22.80;42.10;;;;;;5082078;27;43996;-62
2022/03/16 11:05:01;;;;;;;4.82;2.85;;;22.80;41.50;;;;;;5081166;27;43754;-62
2022/03/16 11:07:31;;;;;;;2.75;2.55;;;22.90;42.20;;;;;;5081261;27;44182;-62
2022/03/16 11:10:00;;;;;;;3.47;2.85;;;22.90;41.50;;;;;;5081629;27;43640;-62
2022/03/16 11:15:14;;;;;;;3.13;2.47;;;22.90;41.50;;;;;;5081107;27;43537;-62
2022/03/16 11:17:42;;;;;;;3.00;2.50;;;22.90;41.60;;;;;;5081953;27;43539;-61
2022/03/16 11:20:11;;;;;;;3.38;2.42;;;22.90;41.50;;;;;;5082538;27;43627;-61
2022/03/16 11:26:14;;;;;;;3.75;2.35;;;23.00;41.60;;;;;;5081424;27;43583;-61
2022/03/16 11:29:23;;;;;;;3.20;2.47;;;23.00;41.60;;;;;;5081625;27;43509;-61
2022/03/16 11:32:06;;;;;;;2.63;2.30;;;23.00;41.50;;;;;;5082197;27;43615;-61
2022/03/16 11:34:36;;;;;;;2.65;2.42;;;23.00;41.50;;;;;;5081287;27;44971;-62
2022/03/16 11:37:11;;;;;;;3.00;2.40;;;23.00;41.50;;;;;;5081330;27;43496;-62
2022/03/16 11:39:47;;;;;;;3.80;2.78;;;23.10;41.50;;;;;;5081020;27;43437;-62
2022/03/16 11:42:18;;;;;;;3.05;2.60;;;23.10;42.00;;;;;;5083480;27;43570;-62
2022/03/16 11:44:46;;;;;;;3.17;2.88;;;23.10;41.50;;;;;;5079638;27;44284;-62
2022/03/16 11:47:15;;;;;;;3.10;2.80;;;23.10;41.30;;;;;;5079242;27;43482;-62
2022/03/16 11:50:03;;;;;;;4.18;2.60;;;23.10;41.30;;;;;;5081070;27;43494;-61
2022/03/16 11:52:59;;;;;;;2.75;2.55;;;23.10;41.40;;;;;;5083962;27;43613;-62
2022/03/16 11:55:48;;;;;;;2.47;2.30;;;23.20;41.40;;;;;;5079913;27;44055;-62
2022/03/16 11:58:28;;;;;;;2.97;2.78;;;23.20;41.40;;;;;;5080192;27;44002;-61
2022/03/16 12:01:28;;;;;;;2.90;2.70;;;23.20;41.30;;;;;;5075470;27;43412;-62
2022/03/16 12:04:15;;;;;;;4.40;2.65;;;23.20;41.30;;;;;;5080811;27;43592;-61
2022/03/16 12:07:05;;;;;;;2.40;2.20;;;23.20;41.30;;;;;;5080735;27;43806;-61
2022/03/16 12:09:34;;;;;;;2.80;2.60;;;23.20;41.30;;;;;;5081562;27;43480;-62
2022/03/16 12:15:10;;;;;;;2.90;2.60;;;23.30;41.00;;;;;;5080532;27;43612;-61
2022/03/16 12:17:56;;;;;;;3.10;2.80;;;23.20;41.00;;;;;;5080409;27;43962;-62
2022/03/16 12:20:23;;;;;;;2.72;2.53;;;23.20;40.90;;;;;;5079286;27;43917;-62
2022/03/16 12:22:59;;;;;;;3.25;2.67;;;23.30;41.00;;;;;;5081559;27;43495;-62
2022/03/16 12:25:29;;;;;;;2.80;2.60;;;23.30;41.00;;;;;;5081577;27;43565;-62
2022/03/16 12:30:55;;;;;;;3.22;2.88;;;23.40;41.00;;;;;;5081254;27;43505;-62
2022/03/16 12:33:26;;;;;;;2.30;2.10;;;23.40;41.10;;;;;;5077457;27;43519;-62
2022/03/16 12:35:58;;;;;;;3.05;2.55;;;23.40;41.00;;;;;;5083409;27;43750;-61
2022/03/16 12:38:29;;;;;;;3.67;2.50;;;23.40;41.00;;;;;;5081410;27;44024;-63
2022/03/16 12:43:48;;;;;;;2.83;2.53;;;23.50;41.00;;;;;;5080348;27;43460;-62
2022/03/16 12:46:26;;;;;;;4.60;3.17;;;23.50;40.90;;;;;;5080090;27;43605;-62
2022/03/16 12:48:55;;;;;;;3.90;2.83;;;23.50;40.70;;;;;;5078315;27;44703;-62
2022/03/16 12:51:39;;;;;;;4.25;2.42;;;23.50;40.80;;;;;;5081096;27;43535;-62
2022/03/16 12:54:07;;;;;;;2.70;2.50;;;23.50;40.80;;;;;;5079765;27;43472;-61
2022/03/16 12:56:40;;;;;;;2.78;2.58;;;23.50;40.80;;;;;;5082317;27;43555;-62
2022/03/16 12:59:08;;;;;;;2.75;2.55;;;23.60;40.80;;;;;;5082465;27;44040;-62
2022/03/16 13:01:36;;;;;;;2.80;2.60;;;23.60;40.80;;;;;;5074421;27;43616;-62
2022/03/16 13:04:07;;;;;;;3.22;2.45;;;23.60;40.70;;;;;;5070843;27;43476;-62
2022/03/16 13:06:35;;;;;;;3.38;2.67;;;23.70;40.80;;;;;;5082907;27;43485;-62
2022/03/16 13:09:06;;;;;;;2.50;2.30;;;23.60;40.60;;;;;;5084701;27;44150;-62
2022/03/16 13:11:34;;;;;;;3.28;2.60;;;23.70;40.70;;;;;;5083305;27;43421;-62
2022/03/16 13:14:16;;;;;;;2.42;2.22;;;23.70;40.60;;;;;;5083834;27;43419;-62
2022/03/16 13:16:44;;;;;;;2.40;2.20;;;23.70;40.60;;;;;;5083978;27;43797;-62
2022/03/16 13:19:25;;;;;;;2.85;2.10;;;23.80;40.60;;;;;;5083899;27;44950;-63
2022/03/16 13:22:06;;;;;;;2.30;2.10;;;23.80;40.60;;;;;;5083757;27;43494;-62
2022/03/16 13:24:41;;;;;;;2.50;2.30;;;23.80;40.50;;;;;;5082064;27;43527;-62
2022/03/16 13:27:11;;;;;;;2.25;2.05;;;23.80;40.60;;;;;;5075167;27;43481;-62